createdAt,value
2022-10-29T00:01:52.360Z,56.2
2022-10-29T00:06:54.715Z,56.3
2022-10-29T00:11:56.798Z,56.1
2022-10-29T00:16:56.043Z,56.5
2022-10-29T00:21:55.675Z,56.4
2022-10-29T00:26:55.463Z,55.9
2022-10-29T00:31:55.324Z,56.3
2022-10-29T00:36:57.762Z,56.5
2022-10-29T00:41:57.265Z,56
2022-10-29T00:46:57.266Z,56.2
2022-10-29T00:51:59.956Z,56.2
2022-10-29T00:56:59.384Z,56.1
2022-10-29T01:02:03.300Z,56.6
2022-10-29T01:07:05.269Z,56.1
2022-10-29T01:12:04.390Z,56
2022-10-29T01:17:07.159Z,56.3
2022-10-29T01:22:06.492Z,56
2022-10-29T01:27:06.530Z,56
2022-10-29T01:32:06.560Z,56.2
2022-10-29T01:37:09.209Z,56.2
2022-10-29T01:42:08.697Z,56.4
2022-10-29T01:47:08.425Z,56.2
2022-10-29T01:52:08.508Z,56.1
2022-10-29T01:57:11.133Z,56.7
2022-10-29T02:02:10.331Z,56.3
2022-10-29T02:07:09.944Z,56.2
2022-10-29T02:12:09.846Z,56.2
2022-10-29T02:17:12.467Z,56.1
2022-10-29T02:22:12.101Z,56.3
2022-10-29T02:27:11.716Z,55.9
2022-10-29T02:32:11.593Z,56.4
2022-10-29T02:37:11.290Z,55.9
2022-10-29T02:42:11.255Z,56.4
2022-10-29T02:47:11.139Z,56.1
2022-10-29T02:52:10.945Z,56.2
2022-10-29T02:57:13.414Z,55.7
2022-10-29T03:02:12.716Z,55.9
2022-10-29T03:07:12.615Z,56
2022-10-29T03:12:12.620Z,55.8
2022-10-29T03:17:12.644Z,56.4
2022-10-29T03:22:15.248Z,55.9
2022-10-29T03:27:17.510Z,56.1
2022-10-29T03:32:16.931Z,55.8
2022-10-29T03:37:19.396Z,56.1
2022-10-29T03:42:21.632Z,56.1
2022-10-29T03:47:21.203Z,55.9
2022-10-29T03:52:20.971Z,55.9
2022-10-29T03:57:20.997Z,55.8
2022-10-29T04:02:21.042Z,55.9
2022-10-29T04:07:23.643Z,55.7
2022-10-29T04:12:22.973Z,55.5
2022-10-29T04:17:23.068Z,55.4
2022-10-29T04:27:49.156Z,55.3
2022-10-29T04:32:27.780Z,55.4
2022-10-29T04:37:27.112Z,55.5
2022-10-29T04:42:29.527Z,55.5
2022-10-29T04:47:31.576Z,55.5
2022-10-29T04:52:31.030Z,55.5
2022-10-29T04:57:33.868Z,55.4
2022-10-29T05:02:33.334Z,55.6
2022-10-29T05:07:33.343Z,55
2022-10-29T05:12:33.118Z,55.2
2022-10-29T05:17:33.198Z,54.6
2022-10-29T05:22:32.978Z,53.7
2022-10-29T05:27:35.679Z,53
2022-10-29T05:37:35.127Z,52.3
2022-10-29T05:42:37.651Z,52.4
2022-10-29T05:47:37.162Z,52.2
2022-10-29T05:52:37.123Z,52.4
2022-10-29T05:57:36.980Z,52.5
2022-10-29T06:02:36.930Z,52.1
2022-10-29T06:07:36.822Z,51.9
2022-10-29T06:12:39.396Z,51.8
2022-10-29T06:17:38.992Z,52.1
2022-10-29T06:22:38.714Z,51.4
2022-10-29T06:27:38.491Z,51.4
2022-10-29T06:32:38.413Z,51.2
2022-10-29T06:37:38.502Z,51.3
2022-10-29T06:42:38.258Z,51.2
2022-10-29T06:47:38.361Z,51.1
2022-10-29T06:52:38.370Z,51
2022-10-29T06:57:38.318Z,51
2022-10-29T07:02:40.904Z,50.6
2022-10-29T07:07:40.520Z,50.5
2022-10-29T07:12:40.477Z,50.4
2022-10-29T07:17:40.426Z,50.4
2022-10-29T07:22:40.008Z,50.4
2022-10-29T07:27:39.838Z,50.3
2022-10-29T07:32:39.930Z,50.5
2022-10-29T07:37:42.341Z,50.5
2022-10-29T07:42:44.538Z,50.3
2022-10-29T07:47:44.120Z,50.3
2022-10-29T07:52:43.981Z,50.3
2022-10-29T07:57:42.729Z,50.4
2022-10-29T08:02:42.533Z,51
2022-10-29T08:07:42.800Z,51.2
2022-10-29T08:12:42.665Z,51.1
2022-10-29T08:17:42.209Z,51.2
2022-10-29T08:22:41.986Z,51.1
2022-10-29T08:27:42.165Z,51.3
2022-10-29T08:32:42.175Z,51.2
2022-10-29T08:37:41.880Z,51.4
2022-10-29T08:42:41.759Z,51.5
2022-10-29T08:47:41.737Z,51.6
2022-10-29T08:52:48.296Z,51.6
2022-10-29T08:57:43.657Z,51.6
2022-10-29T09:02:43.477Z,51.7
2022-10-29T09:07:46.120Z,51.8
2022-10-29T09:12:45.623Z,51.9
2022-10-29T09:17:48.449Z,51.8
2022-10-29T09:22:50.640Z,52
2022-10-29T09:27:50.130Z,52.3
2022-10-29T09:32:52.932Z,52.2
2022-10-29T09:37:52.290Z,52.2
2022-10-29T09:42:52.155Z,52.4
2022-10-29T09:47:52.001Z,52.5
2022-10-29T09:52:51.733Z,52.5
2022-10-29T09:57:54.320Z,52.9
2022-10-29T10:02:54.064Z,52.8
2022-10-29T10:07:53.949Z,52.9
2022-10-29T10:12:53.428Z,53.1
2022-10-29T10:17:56.525Z,53.1
2022-10-29T10:22:58.647Z,53.1
2022-10-29T10:28:00.551Z,53.3
2022-10-29T10:33:02.762Z,53.6
2022-10-29T10:38:02.084Z,53.6
2022-10-29T10:43:06.819Z,53.7
2022-10-29T10:48:04.348Z,53.5
2022-10-29T10:53:07.076Z,53.7
2022-10-29T10:58:06.588Z,53.6
2022-10-29T11:03:06.557Z,53.8
2022-10-29T11:08:06.363Z,53.8
2022-10-29T11:13:06.190Z,53.7
2022-10-29T11:18:06.261Z,53.9
2022-10-29T11:23:06.029Z,54
2022-10-29T11:28:06.292Z,54
2022-10-29T11:33:06.154Z,54.3
2022-10-29T11:38:05.940Z,54.4
2022-10-29T11:43:08.353Z,54.6
2022-10-29T11:48:05.970Z,54.5
2022-10-29T11:53:06.176Z,54.7
2022-10-29T11:58:08.865Z,54.5
2022-10-29T12:03:07.882Z,54.8
2022-10-29T12:08:10.490Z,54.6
2022-10-29T12:13:09.761Z,54.8
2022-10-29T12:18:09.433Z,54.9
2022-10-29T12:23:13.670Z,55
2022-10-29T12:28:09.353Z,54.9
2022-10-29T12:33:09.257Z,54.9
2022-10-29T12:38:09.337Z,54.9
2022-10-29T12:43:12.043Z,54.9
2022-10-29T12:48:14.356Z,54.6
2022-10-29T12:53:14.037Z,54.3
2022-10-29T12:58:16.714Z,53.8
2022-10-29T13:03:18.904Z,53.9
2022-10-29T13:08:18.306Z,53.7
2022-10-29T13:13:18.355Z,53.6
2022-10-29T13:18:18.337Z,53.7
2022-10-29T13:23:18.357Z,53.7
2022-10-29T13:28:21.116Z,53.2
2022-10-29T13:33:20.569Z,53.5
2022-10-29T13:38:20.785Z,53.1
2022-10-29T13:43:20.744Z,53.5
2022-10-29T13:48:23.501Z,53.6
2022-10-29T13:53:23.032Z,53.2
2022-10-29T13:58:23.204Z,53.1
2022-10-29T14:03:23.242Z,53.8
2022-10-29T14:08:23.196Z,53.7
2022-10-29T14:13:24.513Z,53.8
2022-10-29T14:18:25.735Z,53.1
2022-10-29T14:23:25.217Z,53.9
2022-10-29T14:28:24.954Z,53.4
2022-10-29T14:33:25.049Z,54
2022-10-29T14:38:25.004Z,54.2
2022-10-29T14:43:24.693Z,54
2022-10-29T14:48:24.869Z,54.2
2022-10-29T14:53:24.630Z,54.2
2022-10-29T15:03:24.990Z,54.2
2022-10-29T15:08:24.749Z,54.2
2022-10-29T15:13:24.620Z,54.2
2022-10-29T15:18:27.160Z,54.1
2022-10-29T15:23:26.872Z,54.2
2022-10-29T15:28:26.604Z,54.1
2022-10-29T15:33:26.531Z,54.2
2022-10-29T15:38:26.429Z,54
2022-10-29T15:43:26.257Z,54.2
2022-10-29T15:48:26.132Z,54.1
2022-10-29T15:53:28.846Z,54.2
2022-10-29T15:58:28.570Z,54.2
2022-10-29T16:03:28.331Z,54.3
2022-10-29T16:08:28.438Z,54.6
2022-10-29T16:13:28.207Z,54.6
2022-10-29T16:18:27.981Z,54.7
2022-10-29T16:23:27.903Z,54.8
2022-10-29T16:28:27.769Z,54.7
2022-10-29T16:33:27.763Z,54.7
2022-10-29T16:38:30.271Z,54.7
2022-10-29T16:43:29.704Z,54.8
2022-10-29T16:48:29.545Z,55.2
2022-10-29T16:53:29.486Z,55.7
2022-10-29T16:58:29.380Z,55.9
2022-10-29T17:03:32.005Z,56
2022-10-29T17:08:34.180Z,55.9
2022-10-29T17:13:36.321Z,55.8
2022-10-29T17:18:35.698Z,55.7
2022-10-29T17:23:35.731Z,55.7
2022-10-29T17:28:35.874Z,55.4
2022-10-29T17:33:38.709Z,55.5
2022-10-29T17:38:37.812Z,55.5
2022-10-29T17:43:40.221Z,55.3
2022-10-29T17:48:39.689Z,55.4
2022-10-29T17:53:41.997Z,55.5
2022-10-29T17:58:43.979Z,55.4
2022-10-29T18:03:43.339Z,55.4
2022-10-29T18:08:46.116Z,55.6
2022-10-29T18:13:44.622Z,55.7
2022-10-29T18:18:54.133Z,55.8
2022-10-29T18:23:44.345Z,55.7
2022-10-29T18:28:44.248Z,55.8
2022-10-29T18:33:46.745Z,55.8
2022-10-29T18:38:46.139Z,55.8
2022-10-29T18:43:46.873Z,55.8
2022-10-29T18:48:46.908Z,55.6
2022-10-29T18:53:46.840Z,55.5
2022-10-29T18:58:46.656Z,55.8
2022-10-29T19:03:49.256Z,55.8
2022-10-29T19:08:51.315Z,56.1
2022-10-29T19:13:50.651Z,55.8
2022-10-29T19:18:50.470Z,56
2022-10-29T19:23:53.197Z,56
2022-10-29T19:28:52.511Z,56
2022-10-29T19:33:52.269Z,56
2022-10-29T19:38:52.130Z,55.8
2022-10-29T19:43:54.980Z,55.9
2022-10-29T19:48:54.297Z,55.8
2022-10-29T19:53:54.278Z,55.9
2022-10-29T19:58:53.947Z,55.8
2022-10-29T20:03:53.854Z,56
2022-10-29T20:08:53.471Z,55.9
2022-10-29T20:13:56.114Z,55.9
2022-10-29T20:18:58.481Z,55.8
2022-10-29T20:24:00.571Z,55.7
2022-10-29T20:29:02.759Z,55.8
2022-10-29T20:34:02.078Z,55.7
2022-10-29T20:39:02.077Z,55.6
2022-10-29T20:44:04.711Z,55.6
2022-10-29T20:49:07.042Z,55.6
2022-10-29T20:54:06.483Z,55.6
2022-10-29T20:59:06.663Z,55.7
2022-10-29T21:04:09.397Z,55.6
2022-10-29T21:09:11.916Z,55.5
2022-10-29T21:14:11.228Z,55.6
2022-10-29T21:19:11.102Z,55.5
2022-10-29T21:24:13.760Z,55.4
2022-10-29T21:29:13.374Z,55.7
2022-10-29T21:34:13.181Z,55.5
2022-10-29T21:39:16.038Z,55.7
2022-10-29T21:44:15.507Z,55.4
2022-10-29T21:49:15.155Z,55.5
2022-10-29T21:54:17.762Z,55.5
2022-10-29T21:59:20.037Z,55.7
2022-10-29T22:04:22.071Z,55.5
2022-10-29T22:09:21.442Z,55.6
2022-10-29T22:14:24.159Z,55.5
2022-10-29T22:19:23.556Z,55.5
2022-10-29T22:24:23.432Z,55.3
2022-10-29T22:29:26.125Z,55.4
2022-10-29T22:34:25.274Z,55.6
2022-10-29T22:39:27.946Z,55.4
2022-10-29T22:44:30.085Z,55.6
2022-10-29T22:49:29.468Z,55.4
2022-10-29T22:54:32.248Z,55.5
2022-10-29T22:59:31.584Z,55.6
2022-10-29T23:04:34.331Z,55.4
2022-10-29T23:09:33.820Z,55.7
2022-10-29T23:14:36.406Z,55.6
2022-10-29T23:19:35.714Z,55.5
2022-10-29T23:24:38.376Z,55.5
2022-10-29T23:29:38.165Z,55.4
2022-10-29T23:34:37.883Z,55.5
2022-10-29T23:39:40.659Z,55.5
2022-10-29T23:44:39.783Z,55.4
2022-10-29T23:49:42.299Z,55.5
2022-10-29T23:54:44.488Z,55.5
2022-10-29T23:59:46.480Z,55.6
